sensor_id;sensor_type;location;lat;lon;timestamp;pressure;altitude;pressure_sealevel;temperature;humidity
45129;BME280;35512;56.312;101.728;2023-06-26T00:00:55;95170.06;;;20.42;47.97
45129;BME280;35512;56.312;101.728;2023-06-26T00:03:24;95176.78;;;20.41;47.95
45129;BME280;35512;56.312;101.728;2023-06-26T00:05:53;95172.50;;;20.31;47.35
45129;BME280;35512;56.312;101.728;2023-06-26T00:08:22;95173.72;;;20.30;47.59
45129;BME280;35512;56.312;101.728;2023-06-26T00:10:51;95173.56;;;20.34;47.50
45129;BME280;35512;56.312;101.728;2023-06-26T00:13:20;95179.38;;;20.45;47.07
45129;BME280;35512;56.312;101.728;2023-06-26T00:15:50;95188.34;;;20.55;46.88
45129;BME280;35512;56.312;101.728;2023-06-26T00:18:19;95181.31;;;20.63;46.52
45129;BME280;35512;56.312;101.728;2023-06-26T00:20:48;95192.75;;;20.62;46.25
45129;BME280;35512;56.312;101.728;2023-06-26T00:23:17;95181.47;;;20.59;46.04
45129;BME280;35512;56.312;101.728;2023-06-26T00:25:46;95184.69;;;20.49;46.42
45129;BME280;35512;56.312;101.728;2023-06-26T00:28:15;95176.44;;;20.58;46.29
45129;BME280;35512;56.312;101.728;2023-06-26T00:30:44;95183.63;;;20.74;46.35
45129;BME280;35512;56.312;101.728;2023-06-26T00:33:13;95183.63;;;20.74;46.33
45129;BME280;35512;56.312;101.728;2023-06-26T00:35:42;95186.34;;;20.83;46.25
45129;BME280;35512;56.312;101.728;2023-06-26T00:38:11;95186.19;;;20.77;46.29
45129;BME280;35512;56.312;101.728;2023-06-26T00:40:40;95186.94;;;20.87;46.22
45129;BME280;35512;56.312;101.728;2023-06-26T00:43:09;95185.22;;;21.08;46.03
45129;BME280;35512;56.312;101.728;2023-06-26T00:45:38;95187.91;;;21.27;45.76
45129;BME280;35512;56.312;101.728;2023-06-26T00:48:11;95177.72;;;21.18;45.98
45129;BME280;35512;56.312;101.728;2023-06-26T00:50:43;95178.63;;;21.24;45.97
45129;BME280;35512;56.312;101.728;2023-06-26T00:53:12;95190.16;;;21.38;45.72
45129;BME280;35512;56.312;101.728;2023-06-26T00:55:41;95186.88;;;21.58;45.52
45129;BME280;35512;56.312;101.728;2023-06-26T00:58:10;95190.06;;;21.66;45.12
45129;BME280;35512;56.312;101.728;2023-06-26T01:00:40;95190.31;;;21.77;44.90
45129;BME280;35512;56.312;101.728;2023-06-26T01:03:09;95192.38;;;21.91;44.90
45129;BME280;35512;56.312;101.728;2023-06-26T01:05:39;95195.41;;;21.93;44.86
45129;BME280;35512;56.312;101.728;2023-06-26T01:08:09;95196.06;;;21.88;44.81
45129;BME280;35512;56.312;101.728;2023-06-26T01:10:38;95190.78;;;21.75;44.99
45129;BME280;35512;56.312;101.728;2023-06-26T01:13:08;95200.31;;;21.65;45.25
45129;BME280;35512;56.312;101.728;2023-06-26T01:15:37;95203.56;;;21.54;45.03
45129;BME280;35512;56.312;101.728;2023-06-26T01:18:06;95198.81;;;21.45;45.19
45129;BME280;35512;56.312;101.728;2023-06-26T01:20:38;95202.84;;;21.35;45.36
45129;BME280;35512;56.312;101.728;2023-06-26T01:23:48;95203.94;;;21.19;45.56
45129;BME280;35512;56.312;101.728;2023-06-26T01:26:21;95205.06;;;20.94;45.63
45129;BME280;35512;56.312;101.728;2023-06-26T01:28:52;95209.50;;;20.64;46.44
45129;BME280;35512;56.312;101.728;2023-06-26T01:31:27;95201.59;;;20.56;46.36
45129;BME280;35512;56.312;101.728;2023-06-26T01:34:02;95204.19;;;20.51;46.55
45129;BME280;35512;56.312;101.728;2023-06-26T01:36:31;95209.69;;;20.51;46.58
45129;BME280;35512;56.312;101.728;2023-06-26T01:39:00;95214.38;;;20.41;46.84
45129;BME280;35512;56.312;101.728;2023-06-26T01:41:29;95204.94;;;20.33;47.04
45129;BME280;35512;56.312;101.728;2023-06-26T01:44:11;95205.53;;;20.18;47.07
45129;BME280;35512;56.312;101.728;2023-06-26T01:47:04;95206.09;;;19.95;47.32
45129;BME280;35512;56.312;101.728;2023-06-26T01:49:53;95198.59;;;19.76;47.82
45129;BME280;35512;56.312;101.728;2023-06-26T01:52:38;95210.72;;;19.57;48.25
45129;BME280;35512;56.312;101.728;2023-06-26T01:55:12;95213.53;;;19.44;48.88
45129;BME280;35512;56.312;101.728;2023-06-26T01:57:47;95205.25;;;19.25;48.91
45129;BME280;35512;56.312;101.728;2023-06-26T02:00:18;95210.41;;;19.23;49.19
45129;BME280;35512;56.312;101.728;2023-06-26T02:02:48;95223.97;;;19.27;48.94
45129;BME280;35512;56.312;101.728;2023-06-26T02:05:17;95210.72;;;19.25;49.08
45129;BME280;35512;56.312;101.728;2023-06-26T02:07:46;95211.81;;;19.28;49.43
45129;BME280;35512;56.312;101.728;2023-06-26T02:10:15;95210.00;;;19.34;49.40
45129;BME280;35512;56.312;101.728;2023-06-26T02:12:46;95206.69;;;19.39;49.07
45129;BME280;35512;56.312;101.728;2023-06-26T02:15:19;95207.94;;;19.48;49.20
45129;BME280;35512;56.312;101.728;2023-06-26T02:17:48;95217.56;;;19.62;48.93
45129;BME280;35512;56.312;101.728;2023-06-26T02:20:17;95215.75;;;19.68;48.84
45129;BME280;35512;56.312;101.728;2023-06-26T02:22:46;95215.13;;;19.64;48.71
45129;BME280;35512;56.312;101.728;2023-06-26T02:25:15;95224.41;;;19.57;48.91
45129;BME280;35512;56.312;101.728;2023-06-26T02:27:45;95216.47;;;19.50;49.32
45129;BME280;35512;56.312;101.728;2023-06-26T02:30:14;95216.13;;;19.48;49.34
45129;BME280;35512;56.312;101.728;2023-06-26T02:32:43;95228.75;;;19.45;49.33
45129;BME280;35512;56.312;101.728;2023-06-26T02:35:13;95221.31;;;19.46;49.59
45129;BME280;35512;56.312;101.728;2023-06-26T02:37:43;95219.09;;;19.63;49.57
45129;BME280;35512;56.312;101.728;2023-06-26T02:40:13;95216.53;;;19.77;49.41
45129;BME280;35512;56.312;101.728;2023-06-26T02:42:43;95223.63;;;19.88;49.04
45129;BME280;35512;56.312;101.728;2023-06-26T02:45:12;95222.84;;;19.87;49.08
45129;BME280;35512;56.312;101.728;2023-06-26T02:47:41;95228.25;;;19.78;49.30
45129;BME280;35512;56.312;101.728;2023-06-26T02:50:12;95229.28;;;19.71;49.39
45129;BME280;35512;56.312;101.728;2023-06-26T02:53:06;95227.94;;;19.67;49.49
45129;BME280;35512;56.312;101.728;2023-06-26T02:55:38;95227.00;;;19.70;49.36
45129;BME280;35512;56.312;101.728;2023-06-26T02:58:07;95229.13;;;19.66;49.45
45129;BME280;35512;56.312;101.728;2023-06-26T03:00:39;95228.25;;;19.69;49.68
45129;BME280;35512;56.312;101.728;2023-06-26T03:03:15;95228.09;;;19.72;49.79
45129;BME280;35512;56.312;101.728;2023-06-26T03:05:44;95221.06;;;19.71;49.77
45129;BME280;35512;56.312;101.728;2023-06-26T03:08:13;95227.03;;;19.79;49.92
45129;BME280;35512;56.312;101.728;2023-06-26T03:10:42;95226.03;;;19.86;49.78
45129;BME280;35512;56.312;101.728;2023-06-26T03:13:12;95225.56;;;19.87;49.74
45129;BME280;35512;56.312;101.728;2023-06-26T03:15:41;95221.16;;;19.90;49.87
45129;BME280;35512;56.312;101.728;2023-06-26T03:18:10;95229.72;;;19.92;49.73
45129;BME280;35512;56.312;101.728;2023-06-26T03:20:39;95226.06;;;19.95;49.59
45129;BME280;35512;56.312;101.728;2023-06-26T03:23:08;95233.97;;;20.02;49.67
45129;BME280;35512;56.312;101.728;2023-06-26T03:25:39;95234.00;;;20.12;49.68
45129;BME280;35512;56.312;101.728;2023-06-26T03:28:37;95232.19;;;20.27;49.43
45129;BME280;35512;56.312;101.728;2023-06-26T03:31:06;95233.09;;;20.24;49.50
45129;BME280;35512;56.312;101.728;2023-06-26T03:33:37;95235.38;;;20.25;49.62
45129;BME280;35512;56.312;101.728;2023-06-26T03:36:06;95229.91;;;20.35;49.60
45129;BME280;35512;56.312;101.728;2023-06-26T03:38:36;95239.22;;;20.56;49.00
45129;BME280;35512;56.312;101.728;2023-06-26T03:41:05;95236.78;;;20.49;49.06
45129;BME280;35512;56.312;101.728;2023-06-26T03:43:34;95231.59;;;20.41;49.45
45129;BME280;35512;56.312;101.728;2023-06-26T03:46:15;95238.47;;;20.55;49.47
45129;BME280;35512;56.312;101.728;2023-06-26T03:48:44;95245.19;;;20.73;48.98
45129;BME280;35512;56.312;101.728;2023-06-26T03:51:14;95239.84;;;20.69;48.86
45129;BME280;35512;56.312;101.728;2023-06-26T03:53:44;95242.31;;;20.76;49.12
45129;BME280;35512;56.312;101.728;2023-06-26T03:56:13;95233.13;;;20.89;49.06
45129;BME280;35512;56.312;101.728;2023-06-26T03:58:43;95235.72;;;20.92;49.00
45129;BME280;35512;56.312;101.728;2023-06-26T04:01:12;95236.91;;;21.10;48.70
45129;BME280;35512;56.312;101.728;2023-06-26T04:03:43;95238.84;;;21.28;48.70
45129;BME280;35512;56.312;101.728;2023-06-26T04:06:13;95235.44;;;21.42;48.64
45129;BME280;35512;56.312;101.728;2023-06-26T04:08:42;95237.56;;;21.48;48.63
45129;BME280;35512;56.312;101.728;2023-06-26T04:11:11;95249.78;;;21.56;48.29
45129;BME280;35512;56.312;101.728;2023-06-26T04:13:40;95241.22;;;21.54;48.41
45129;BME280;35512;56.312;101.728;2023-06-26T04:16:09;95241.06;;;21.57;48.12
45129;BME280;35512;56.312;101.728;2023-06-26T04:18:39;95240.31;;;21.57;48.23
45129;BME280;35512;56.312;101.728;2023-06-26T04:21:11;95244.44;;;21.43;48.18
45129;BME280;35512;56.312;101.728;2023-06-26T04:23:40;95239.53;;;21.47;48.45
45129;BME280;35512;56.312;101.728;2023-06-26T04:26:09;95241.66;;;21.52;48.33
45129;BME280;35512;56.312;101.728;2023-06-26T04:28:42;95245.50;;;21.55;48.31
45129;BME280;35512;56.312;101.728;2023-06-26T04:31:11;95251.47;;;21.44;48.30
45129;BME280;35512;56.312;101.728;2023-06-26T04:33:40;95256.38;;;21.21;48.56
45129;BME280;35512;56.312;101.728;2023-06-26T04:36:10;95255.06;;;20.98;49.07
45129;BME280;35512;56.312;101.728;2023-06-26T04:38:39;95255.25;;;20.85;49.27
45129;BME280;35512;56.312;101.728;2023-06-26T04:41:09;95253.41;;;20.73;49.63
45129;BME280;35512;56.312;101.728;2023-06-26T04:43:38;95248.22;;;20.66;49.71
45129;BME280;35512;56.312;101.728;2023-06-26T04:46:07;95240.75;;;20.38;49.99
45129;BME280;35512;56.312;101.728;2023-06-26T04:48:36;95243.75;;;20.22;50.23
45129;BME280;35512;56.312;101.728;2023-06-26T04:51:05;95247.84;;;20.08;50.38
45129;BME280;35512;56.312;101.728;2023-06-26T04:53:34;95245.53;;;19.97;50.55
45129;BME280;35512;56.312;101.728;2023-06-26T04:56:03;95248.28;;;19.88;51.05
45129;BME280;35512;56.312;101.728;2023-06-26T04:58:32;95234.09;;;19.80;50.95
45129;BME280;35512;56.312;101.728;2023-06-26T05:01:01;95231.06;;;19.87;51.17
45129;BME280;35512;56.312;101.728;2023-06-26T05:03:31;95241.47;;;20.11;51.12
45129;BME280;35512;56.312;101.728;2023-06-26T05:06:00;95237.53;;;20.31;50.81
45129;BME280;35512;56.312;101.728;2023-06-26T05:08:36;95238.16;;;20.53;50.67
45129;BME280;35512;56.312;101.728;2023-06-26T05:11:05;95234.19;;;20.64;50.37
45129;BME280;35512;56.312;101.728;2023-06-26T05:13:35;95236.19;;;20.63;50.43
45129;BME280;35512;56.312;101.728;2023-06-26T05:16:05;95236.19;;;20.63;50.58
45129;BME280;35512;56.312;101.728;2023-06-26T05:18:34;95241.97;;;20.65;50.49
45129;BME280;35512;56.312;101.728;2023-06-26T05:21:04;95241.34;;;20.61;50.71
45129;BME280;35512;56.312;101.728;2023-06-26T05:23:34;95247.75;;;20.58;50.65
45129;BME280;35512;56.312;101.728;2023-06-26T05:26:04;95243.94;;;20.55;50.77
45129;BME280;35512;56.312;101.728;2023-06-26T05:28:33;95245.63;;;20.53;50.58
45129;BME280;35512;56.312;101.728;2023-06-26T05:31:04;95236.16;;;20.44;51.22
45129;BME280;35512;56.312;101.728;2023-06-26T05:33:35;95243.19;;;20.46;51.17
45129;BME280;35512;56.312;101.728;2023-06-26T05:36:06;95243.19;;;20.46;51.25
45129;BME280;35512;56.312;101.728;2023-06-26T05:38:36;95242.09;;;20.43;51.45
45129;BME280;35512;56.312;101.728;2023-06-26T05:41:05;95249.88;;;20.35;51.66
45129;BME280;35512;56.312;101.728;2023-06-26T05:43:34;95253.66;;;20.29;51.80
45129;BME280;35512;56.312;101.728;2023-06-26T05:46:03;95253.81;;;20.16;51.92
45129;BME280;35512;56.312;101.728;2023-06-26T05:48:32;95250.41;;;20.02;52.24
45129;BME280;35512;56.312;101.728;2023-06-26T05:51:01;95254.38;;;19.92;52.42
45129;BME280;35512;56.312;101.728;2023-06-26T05:53:32;95259.16;;;19.79;52.75
45129;BME280;35512;56.312;101.728;2023-06-26T05:56:01;95254.09;;;19.68;52.92
45129;BME280;35512;56.312;101.728;2023-06-26T05:58:30;95252.84;;;19.59;53.13
45129;BME280;35512;56.312;101.728;2023-06-26T06:01:00;95256.28;;;19.41;53.61
45129;BME280;35512;56.312;101.728;2023-06-26T06:03:29;95250.38;;;19.21;54.13
45129;BME280;35512;56.312;101.728;2023-06-26T06:05:58;95254.72;;;19.09;54.51
45129;BME280;35512;56.312;101.728;2023-06-26T06:08:27;95256.94;;;19.01;55.17
45129;BME280;35512;56.312;101.728;2023-06-26T06:10:56;95250.41;;;18.99;55.11
45129;BME280;35512;56.312;101.728;2023-06-26T06:13:25;95254.22;;;19.01;55.43
45129;BME280;35512;56.312;101.728;2023-06-26T06:15:54;95258.78;;;19.04;55.31
45129;BME280;35512;56.312;101.728;2023-06-26T06:18:24;95252.94;;;19.15;55.47
45129;BME280;35512;56.312;101.728;2023-06-26T06:20:52;95256.06;;;19.27;55.57
45129;BME280;35512;56.312;101.728;2023-06-26T06:23:21;95250.19;;;19.37;55.27
45129;BME280;35512;56.312;101.728;2023-06-26T06:25:51;95257.53;;;19.50;55.22
45129;BME280;35512;56.312;101.728;2023-06-26T06:28:20;95263.03;;;19.59;55.18
45129;BME280;35512;56.312;101.728;2023-06-26T06:30:49;95251.19;;;19.71;55.08
45129;BME280;35512;56.312;101.728;2023-06-26T06:33:19;95243.31;;;19.73;55.27
45129;BME280;35512;56.312;101.728;2023-06-26T06:35:48;95239.38;;;19.74;55.25
45129;BME280;35512;56.312;101.728;2023-06-26T06:38:17;95239.03;;;19.72;55.26
45129;BME280;35512;56.312;101.728;2023-06-26T06:40:46;95239.03;;;19.72;55.59
45129;BME280;35512;56.312;101.728;2023-06-26T06:43:15;95246.22;;;19.79;55.38
45129;BME280;35512;56.312;101.728;2023-06-26T06:45:45;95245.53;;;19.88;55.53
45129;BME280;35512;56.312;101.728;2023-06-26T06:48:14;95248.88;;;19.92;55.61
45129;BME280;35512;56.312;101.728;2023-06-26T06:50:43;95247.03;;;19.89;55.94
45129;BME280;35512;56.312;101.728;2023-06-26T06:53:12;95250.38;;;19.84;55.89
45129;BME280;35512;56.312;101.728;2023-06-26T06:55:41;95247.00;;;19.80;55.79
45129;BME280;35512;56.312;101.728;2023-06-26T06:58:10;95243.31;;;19.73;56.02
45129;BME280;35512;56.312;101.728;2023-06-26T07:00:40;95243.44;;;19.70;55.96
45129;BME280;35512;56.312;101.728;2023-06-26T07:03:09;95255.25;;;19.57;56.30
45129;BME280;35512;56.312;101.728;2023-06-26T07:05:40;95257.22;;;19.48;56.63
45129;BME280;35512;56.312;101.728;2023-06-26T07:08:10;95254.47;;;19.48;56.69
45129;BME280;35512;56.312;101.728;2023-06-26T07:10:39;95253.72;;;19.47;56.77
45129;BME280;35512;56.312;101.728;2023-06-26T07:13:08;95251.09;;;19.43;56.71
45129;BME280;35512;56.312;101.728;2023-06-26T07:15:37;95267.81;;;19.36;56.97
45129;BME280;35512;56.312;101.728;2023-06-26T07:18:06;95262.84;;;19.22;57.36
45129;BME280;35512;56.312;101.728;2023-06-26T07:20:35;95258.66;;;19.08;57.50
45129;BME280;35512;56.312;101.728;2023-06-26T07:23:05;95261.53;;;19.04;57.88
45129;BME280;35512;56.312;101.728;2023-06-26T07:25:34;95255.88;;;18.99;58.03
45129;BME280;35512;56.312;101.728;2023-06-26T07:28:05;95259.50;;;18.96;57.97
45129;BME280;35512;56.312;101.728;2023-06-26T07:30:38;95254.47;;;18.94;57.94
45129;BME280;35512;56.312;101.728;2023-06-26T07:33:07;95255.59;;;18.84;57.94
45129;BME280;35512;56.312;101.728;2023-06-26T07:35:36;95266.59;;;18.71;58.04
45129;BME280;35512;56.312;101.728;2023-06-26T07:38:05;95260.69;;;18.72;57.98
45129;BME280;35512;56.312;101.728;2023-06-26T07:40:34;95263.50;;;18.82;57.86
45129;BME280;35512;56.312;101.728;2023-06-26T07:43:03;95260.94;;;18.87;57.66
45129;BME280;35512;56.312;101.728;2023-06-26T07:45:32;95261.50;;;18.95;57.47
45129;BME280;35512;56.312;101.728;2023-06-26T07:48:01;95261.03;;;18.97;57.66
45129;BME280;35512;56.312;101.728;2023-06-26T07:50:30;95258.59;;;18.99;57.51
45129;BME280;35512;56.312;101.728;2023-06-26T07:52:59;95255.38;;;18.91;57.59
45129;BME280;35512;56.312;101.728;2023-06-26T07:55:28;95254.69;;;18.87;57.75
45129;BME280;35512;56.312;101.728;2023-06-26T07:57:57;95258.31;;;18.84;57.81
45129;BME280;35512;56.312;101.728;2023-06-26T08:00:26;95251.00;;;18.81;57.82
45129;BME280;35512;56.312;101.728;2023-06-26T08:02:56;95252.22;;;18.80;57.87
45129;BME280;35512;56.312;101.728;2023-06-26T08:05:25;95255.28;;;18.82;57.74
45129;BME280;35512;56.312;101.728;2023-06-26T08:07:54;95254.38;;;18.85;57.80
45129;BME280;35512;56.312;101.728;2023-06-26T08:10:23;95254.38;;;18.85;57.88
45129;BME280;35512;56.312;101.728;2023-06-26T08:12:52;95247.19;;;18.78;57.94
45129;BME280;35512;56.312;101.728;2023-06-26T08:15:21;95253.03;;;18.67;58.07
45129;BME280;35512;56.312;101.728;2023-06-26T08:17:50;95256.84;;;18.70;58.13
45129;BME280;35512;56.312;101.728;2023-06-26T08:20:19;95260.16;;;18.65;58.18
45129;BME280;35512;56.312;101.728;2023-06-26T08:22:48;95261.75;;;18.53;58.00
45129;BME280;35512;56.312;101.728;2023-06-26T08:25:20;95259.38;;;18.42;58.37
45129;BME280;35512;56.312;101.728;2023-06-26T08:27:49;95254.03;;;18.38;58.54
45129;BME280;35512;56.312;101.728;2023-06-26T08:30:21;95250.84;;;18.40;58.55
45129;BME280;35512;56.312;101.728;2023-06-26T08:32:50;95249.50;;;18.45;58.54
45129;BME280;35512;56.312;101.728;2023-06-26T08:35:20;95253.56;;;18.40;58.81
45129;BME280;35512;56.312;101.728;2023-06-26T08:37:51;95240.28;;;18.29;58.91
45129;BME280;35512;56.312;101.728;2023-06-26T08:40:21;95258.19;;;18.30;59.23
45129;BME280;35512;56.312;101.728;2023-06-26T08:42:50;95246.94;;;18.28;59.39
45129;BME280;35512;56.312;101.728;2023-06-26T08:45:21;95254.28;;;18.18;59.37
45129;BME280;35512;56.312;101.728;2023-06-26T08:47:53;95254.63;;;18.07;59.53
45129;BME280;35512;56.312;101.728;2023-06-26T08:50:28;95253.88;;;17.94;59.98
45129;BME280;35512;56.312;101.728;2023-06-26T08:53:21;95250.72;;;17.83;60.17
45129;BME280;35512;56.312;101.728;2023-06-26T08:55:52;95251.59;;;17.67;60.19
45129;BME280;35512;56.312;101.728;2023-06-26T08:58:22;95258.16;;;17.56;60.73
45129;BME280;35512;56.312;101.728;2023-06-26T09:00:52;95265.66;;;17.39;61.25
45129;BME280;35512;56.312;101.728;2023-06-26T09:03:24;95280.41;;;17.29;61.33
45129;BME280;35512;56.312;101.728;2023-06-26T09:05:54;95280.78;;;17.15;61.70
45129;BME280;35512;56.312;101.728;2023-06-26T09:08:23;95285.88;;;17.00;62.14
45129;BME280;35512;56.312;101.728;2023-06-26T09:10:52;95286.59;;;16.87;62.20
45129;BME280;35512;56.312;101.728;2023-06-26T09:13:21;95283.03;;;16.74;62.40
45129;BME280;35512;56.312;101.728;2023-06-26T09:15:58;95282.66;;;16.59;63.29
45129;BME280;35512;56.312;101.728;2023-06-26T09:18:27;95283.03;;;16.45;63.27
45129;BME280;35512;56.312;101.728;2023-06-26T09:20:56;95283.91;;;16.42;63.74
45129;BME280;35512;56.312;101.728;2023-06-26T09:23:26;95278.63;;;16.34;63.97
45129;BME280;35512;56.312;101.728;2023-06-26T09:25:55;95282.81;;;16.22;64.07
45129;BME280;35512;56.312;101.728;2023-06-26T09:28:24;95276.34;;;16.16;64.40
45129;BME280;35512;56.312;101.728;2023-06-26T09:30:54;95274.75;;;16.02;65.04
45129;BME280;35512;56.312;101.728;2023-06-26T09:33:23;95274.25;;;15.91;65.32
45129;BME280;35512;56.312;101.728;2023-06-26T09:35:52;95279.81;;;15.84;65.76
45129;BME280;35512;56.312;101.728;2023-06-26T09:38:21;95278.38;;;15.79;66.04
45129;BME280;35512;56.312;101.728;2023-06-26T09:40:50;95272.53;;;15.81;66.11
45129;BME280;35512;56.312;101.728;2023-06-26T09:43:20;95274.38;;;15.84;66.27
45129;BME280;35512;56.312;101.728;2023-06-26T09:45:49;95276.00;;;15.81;66.35
45129;BME280;35512;56.312;101.728;2023-06-26T09:48:18;95271.34;;;15.82;66.65
45129;BME280;35512;56.312;101.728;2023-06-26T09:50:47;95274.06;;;15.82;66.63
45129;BME280;35512;56.312;101.728;2023-06-26T09:53:36;95262.81;;;15.80;67.01
45129;BME280;35512;56.312;101.728;2023-06-26T09:56:06;95258.16;;;15.80;67.17
45129;BME280;35512;56.312;101.728;2023-06-26T09:58:39;95264.75;;;15.79;67.26
45129;BME280;35512;56.312;101.728;2023-06-26T10:01:09;95270.56;;;15.81;67.49
45129;BME280;35512;56.312;101.728;2023-06-26T10:03:39;95264.41;;;15.77;67.58
45129;BME280;35512;56.312;101.728;2023-06-26T10:06:09;95261.25;;;15.79;67.89
45129;BME280;35512;56.312;101.728;2023-06-26T10:08:41;95257.72;;;15.82;67.73
45129;BME280;35512;56.312;101.728;2023-06-26T10:11:15;95250.50;;;15.92;67.66
45129;BME280;35512;56.312;101.728;2023-06-26T10:13:47;95259.50;;;16.05;67.63
45129;BME280;35512;56.312;101.728;2023-06-26T10:16:28;95251.25;;;16.09;67.26
45129;BME280;35512;56.312;101.728;2023-06-26T10:19:03;95257.03;;;16.11;67.58
45129;BME280;35512;56.312;101.728;2023-06-26T10:21:37;95259.31;;;16.12;67.27
45129;BME280;35512;56.312;101.728;2023-06-26T10:24:08;95241.22;;;16.05;67.42
45129;BME280;35512;56.312;101.728;2023-06-26T10:26:43;95249.97;;;16.13;67.58
45129;BME280;35512;56.312;101.728;2023-06-26T10:29:16;95257.28;;;16.16;67.81
45129;BME280;35512;56.312;101.728;2023-06-26T10:31:50;95260.25;;;16.22;67.54
45129;BME280;35512;56.312;101.728;2023-06-26T10:34:20;95250.03;;;16.26;67.49
45129;BME280;35512;56.312;101.728;2023-06-26T10:36:59;95250.47;;;16.25;67.58
45129;BME280;35512;56.312;101.728;2023-06-26T10:39:46;95248.25;;;16.19;67.83
45129;BME280;35512;56.312;101.728;2023-06-26T10:42:19;95259.56;;;16.18;67.70
45129;BME280;35512;56.312;101.728;2023-06-26T10:44:52;95259.25;;;16.16;67.88
45129;BME280;35512;56.312;101.728;2023-06-26T10:47:33;95257.03;;;16.11;67.99
45129;BME280;35512;56.312;101.728;2023-06-26T10:55:51;95266.06;;;16.08;68.18
45129;BME280;35512;56.312;101.728;2023-06-26T11:01:21;95272.09;;;15.99;68.33
45129;BME280;35512;56.312;101.728;2023-06-26T11:06:27;95273.47;;;15.91;68.43
45129;BME280;35512;56.312;101.728;2023-06-26T11:09:07;95279.00;;;15.87;68.66
45129;BME280;35512;56.312;101.728;2023-06-26T11:14:23;95277.50;;;15.66;69.04
45129;BME280;35512;56.312;101.728;2023-06-26T11:16:52;95280.81;;;15.57;69.34
45129;BME280;35512;56.312;101.728;2023-06-26T11:19:26;95280.19;;;15.49;69.10
45129;BME280;35512;56.312;101.728;2023-06-26T11:22:03;95285.44;;;15.40;69.51
45129;BME280;35512;56.312;101.728;2023-06-26T11:24:33;95289.34;;;15.39;69.58
45129;BME280;35512;56.312;101.728;2023-06-26T11:27:02;95299.03;;;15.40;69.27
45129;BME280;35512;56.312;101.728;2023-06-26T11:29:33;95291.78;;;15.33;69.44
45129;BME280;35512;56.312;101.728;2023-06-26T11:32:03;95291.47;;;15.31;69.57
45129;BME280;35512;56.312;101.728;2023-06-26T11:34:34;95306.72;;;15.25;69.76
45129;BME280;35512;56.312;101.728;2023-06-26T11:37:04;95305.00;;;15.15;69.87
45129;BME280;35512;56.312;101.728;2023-06-26T11:39:33;95300.75;;;15.14;69.93
45129;BME280;35512;56.312;101.728;2023-06-26T11:42:02;95307.44;;;15.09;70.09
45129;BME280;35512;56.312;101.728;2023-06-26T11:44:40;95297.88;;;15.01;70.25
45129;BME280;35512;56.312;101.728;2023-06-26T11:47:15;95293.75;;;14.93;70.32
45129;BME280;35512;56.312;101.728;2023-06-26T11:49:45;95294.19;;;14.91;70.98
45129;BME280;35512;56.312;101.728;2023-06-26T11:52:16;95297.47;;;14.82;70.91
45129;BME280;35512;56.312;101.728;2023-06-26T11:54:45;95294.47;;;14.77;71.26
45129;BME280;35512;56.312;101.728;2023-06-26T11:57:15;95293.34;;;14.74;71.22
45129;BME280;35512;56.312;101.728;2023-06-26T11:59:45;95294.47;;;14.77;71.01
45129;BME280;35512;56.312;101.728;2023-06-26T12:02:15;95297.19;;;14.77;71.20
45129;BME280;35512;56.312;101.728;2023-06-26T12:04:45;95306.53;;;14.76;70.93
45129;BME280;35512;56.312;101.728;2023-06-26T12:07:15;95302.75;;;14.69;71.26
45129;BME280;35512;56.312;101.728;2023-06-26T12:09:46;95309.28;;;14.72;71.14
45129;BME280;35512;56.312;101.728;2023-06-26T12:12:18;95304.41;;;14.63;71.59
45129;BME280;35512;56.312;101.728;2023-06-26T12:14:47;95307.63;;;14.54;71.66
45129;BME280;35512;56.312;101.728;2023-06-26T12:17:16;95308.84;;;14.53;71.48
45129;BME280;35512;56.312;101.728;2023-06-26T12:19:46;95313.25;;;14.44;71.53
45129;BME280;35512;56.312;101.728;2023-06-26T12:22:17;95317.69;;;14.34;72.09
45129;BME280;35512;56.312;101.728;2023-06-26T12:24:47;95329.38;;;14.31;72.11
45129;BME280;35512;56.312;101.728;2023-06-26T12:27:18;95327.97;;;14.23;71.74
45129;BME280;35512;56.312;101.728;2023-06-26T12:29:54;95335.41;;;14.18;72.08
45129;BME280;35512;56.312;101.728;2023-06-26T12:32:24;95338.94;;;14.15;72.40
45129;BME280;35512;56.312;101.728;2023-06-26T12:34:57;95346.00;;;14.09;72.37
45129;BME280;35512;56.312;101.728;2023-06-26T12:37:27;95345.31;;;14.05;72.39
45129;BME280;35512;56.312;101.728;2023-06-26T12:39:59;95345.00;;;13.99;72.43
45129;BME280;35512;56.312;101.728;2023-06-26T12:42:33;95362.47;;;13.98;72.81
45129;BME280;35512;56.312;101.728;2023-06-26T12:45:11;95346.63;;;13.93;73.17
45129;BME280;35512;56.312;101.728;2023-06-26T12:48:17;95355.59;;;13.90;73.20
45129;BME280;35512;56.312;101.728;2023-06-26T12:50:46;95357.97;;;13.88;73.53
45129;BME280;35512;56.312;101.728;2023-06-26T12:53:16;95352.63;;;13.81;74.51
45129;BME280;35512;56.312;101.728;2023-06-26T12:55:45;95347.28;;;13.77;74.72
45129;BME280;35512;56.312;101.728;2023-06-26T12:58:14;95361.28;;;13.72;75.53
45129;BME280;35512;56.312;101.728;2023-06-26T13:00:44;95364.75;;;13.73;76.53
45129;BME280;35512;56.312;101.728;2023-06-26T13:03:13;95370.25;;;13.69;76.88
45129;BME280;35512;56.312;101.728;2023-06-26T13:05:42;95364.84;;;13.65;77.97
45129;BME280;35512;56.312;101.728;2023-06-26T13:08:12;95366.44;;;13.63;78.98
45129;BME280;35512;56.312;101.728;2023-06-26T13:10:41;95363.75;;;13.59;79.38
45129;BME280;35512;56.312;101.728;2023-06-26T13:13:11;95370.72;;;13.60;79.99